createdAt,value
2022-09-20T00:01:12.979Z,95981.03
2022-09-20T00:03:42.548Z,95982.16
2022-09-20T00:06:12.503Z,95980.00
2022-09-20T00:08:41.333Z,95991.25
2022-09-20T00:11:13.135Z,96011.97
2022-09-20T00:13:41.255Z,95994.84
2022-09-20T00:16:12.805Z,96006.19
2022-09-20T00:18:41.158Z,95997.63
2022-09-20T00:21:13.988Z,95992.34
2022-09-20T00:23:41.583Z,95992.00
2022-09-20T00:26:10.947Z,95986.09
2022-09-20T00:28:38.575Z,95987.63
2022-09-20T00:31:06.781Z,95988.75
2022-09-20T00:33:48.682Z,95993.19
2022-09-20T00:36:17.443Z,95983.47
2022-09-20T00:38:45.210Z,95982.50
2022-09-20T00:41:14.879Z,95978.22
2022-09-20T00:43:44.655Z,95978.91
2022-09-20T00:46:24.203Z,95979.22
2022-09-20T00:48:56.972Z,95974.97
2022-09-20T00:51:29.847Z,95974.31
2022-09-20T00:54:00.986Z,95974.31
2022-09-20T00:56:34.103Z,95973.97
2022-09-20T00:59:07.325Z,95968.09
2022-09-20T01:01:36.421Z,95967.63
2022-09-20T01:04:04.748Z,95972.53
2022-09-20T01:06:35.154Z,95972.06
2022-09-20T01:09:07.797Z,95981.31
2022-09-20T01:11:39.159Z,95965.00
2022-09-20T01:14:07.202Z,95963.72
2022-09-20T01:16:35.306Z,95960.91
2022-09-20T01:19:12.986Z,95964.19
2022-09-20T01:21:40.882Z,95965.00
2022-09-20T01:24:17.455Z,95965.97
2022-09-20T01:27:00.275Z,95958.25
2022-09-20T01:29:40.952Z,95957.44
2022-09-20T01:32:14.928Z,95954.97
2022-09-20T01:34:48.103Z,95947.38
2022-09-20T01:37:22.931Z,95948.03
2022-09-20T01:39:58.661Z,95951.00
2022-09-20T01:42:33.583Z,95953.00
2022-09-20T01:45:11.566Z,95945.25
2022-09-20T01:47:45.387Z,95947.72
2022-09-20T01:50:22.158Z,95941.66
2022-09-20T01:53:11.313Z,95943.50
2022-09-20T01:56:12.449Z,95948.69
2022-09-20T01:59:25.269Z,95951.31
2022-09-20T02:02:07.872Z,95941.44
2022-09-20T02:05:00.423Z,95952.56
2022-09-20T02:07:57.693Z,95947.63
2022-09-20T02:10:59.746Z,95951.53
2022-09-20T02:13:32.479Z,95946.94
2022-09-20T02:16:14.507Z,95951.50
2022-09-20T02:19:06.179Z,95954.81
2022-09-20T02:21:40.298Z,95949.66
2022-09-20T02:24:23.306Z,95951.81
2022-09-20T02:27:08.791Z,95945.88
2022-09-20T02:29:45.932Z,95949.84
2022-09-20T02:32:29.199Z,95948.72
2022-09-20T02:35:14.988Z,95951.16
2022-09-20T02:37:58.853Z,95951.13
2022-09-20T02:40:53.464Z,95953.13
2022-09-20T02:43:31.509Z,95955.09
2022-09-20T02:46:04.570Z,95952.03
2022-09-20T02:48:50.924Z,95950.38
2022-09-20T02:51:27.066Z,95957.44
2022-09-20T02:54:06.178Z,95953.50
2022-09-20T02:56:44.006Z,95949.94
2022-09-20T02:59:25.112Z,95954.06
2022-09-20T03:02:04.674Z,95949.00
2022-09-20T03:04:43.723Z,95949.34
2022-09-20T03:07:22.143Z,95948.91
2022-09-20T03:10:05.158Z,95943.50
2022-09-20T03:12:44.667Z,95944.47
2022-09-20T03:15:21.056Z,95951.06
2022-09-20T03:17:53.688Z,95947.59
2022-09-20T03:20:35.379Z,95952.69
2022-09-20T03:23:14.719Z,95949.06
2022-09-20T03:25:55.854Z,95951.34
2022-09-20T03:28:49.197Z,95954.97
2022-09-20T03:31:28.802Z,95959.94
2022-09-20T03:34:08.971Z,95954.66
2022-09-20T03:36:53.325Z,95949.75
2022-09-20T03:39:40.024Z,95948.09
2022-09-20T03:42:17.487Z,95945.81
2022-09-20T03:45:04.274Z,95957.31
2022-09-20T03:47:51.019Z,95960.25
2022-09-20T03:50:35.100Z,95956.00
2022-09-20T03:53:29.362Z,95943.84
2022-09-20T03:56:26.650Z,95953.53
2022-09-20T03:59:22.155Z,95946.28
2022-09-20T04:02:11.281Z,95943.19
2022-09-20T04:04:47.195Z,95948.09
2022-09-20T04:07:20.403Z,95945.13
2022-09-20T04:10:04.240Z,95952.06
2022-09-20T04:12:45.486Z,95954.34
2022-09-20T04:15:36.621Z,95952.19
2022-09-20T04:18:12.556Z,95954.69
2022-09-20T04:20:47.139Z,95951.56
2022-09-20T04:23:26.569Z,95949.75
2022-09-20T04:25:55.465Z,95948.09
2022-09-20T04:28:29.600Z,95941.84
2022-09-20T04:31:04.934Z,95949.25
2022-09-20T04:33:38.259Z,95952.72
2022-09-20T04:36:29.404Z,95945.13
2022-09-20T04:39:05.134Z,95949.56
2022-09-20T04:42:11.437Z,95952.19
2022-09-20T04:45:08.365Z,95955.66
2022-09-20T04:48:00.772Z,95946.75
2022-09-20T04:50:57.169Z,95948.41
2022-09-20T04:53:45.560Z,95955.31
2022-09-20T04:56:21.883Z,95954.66
2022-09-20T04:59:00.774Z,95956.81
2022-09-20T05:02:09.842Z,95964.03
2022-09-20T05:05:16.669Z,95962.88
2022-09-20T05:08:40.592Z,95964.84
2022-09-20T05:11:31.936Z,95964.84
2022-09-20T05:14:24.684Z,95972.75
2022-09-20T05:17:15.018Z,95966.81
2022-09-20T05:19:58.473Z,95965.53
2022-09-20T05:22:54.953Z,95966.16
2022-09-20T05:25:38.358Z,95973.41
2022-09-20T05:28:11.219Z,95974.06
2022-09-20T05:30:45.447Z,95980.44
2022-09-20T05:33:42.208Z,95985.22
2022-09-20T05:36:18.819Z,95982.88
2022-09-20T05:38:50.867Z,95979.94
2022-09-20T05:41:32.273Z,95981.22
2022-09-20T05:44:09.725Z,95980.06
2022-09-20T05:46:47.455Z,95985.47
2022-09-20T05:49:34.462Z,95985.13
2022-09-20T05:52:23.867Z,95994.03
2022-09-20T05:55:19.606Z,95993.91
2022-09-20T05:58:04.104Z,96005.91
2022-09-20T06:00:41.041Z,96010.53
2022-09-20T06:03:19.719Z,96004.56
2022-09-20T06:05:59.052Z,96007.19
2022-09-20T06:08:42.176Z,96013.41
2022-09-20T06:11:34.427Z,96018.84
2022-09-20T06:14:15.383Z,96006.78
2022-09-20T06:16:53.680Z,96016.19
2022-09-20T06:19:32.777Z,96017.94
2022-09-20T06:22:11.284Z,96020.94
2022-09-20T06:24:44.347Z,96024.22
2022-09-20T06:27:19.242Z,96018.31
2022-09-20T06:29:54.164Z,96017.00
2022-09-20T06:32:22.350Z,96022.75
2022-09-20T06:34:50.801Z,96017.31
2022-09-20T06:37:51.486Z,96019.09
2022-09-20T06:40:50.699Z,96023.34
2022-09-20T06:43:19.252Z,96024.69
2022-09-20T06:45:47.387Z,96021.25
2022-09-20T06:48:15.530Z,96026.53
2022-09-20T06:50:45.365Z,96021.72
2022-09-20T06:53:18.921Z,96027.13
2022-09-20T06:55:47.806Z,96025.13
2022-09-20T06:58:15.417Z,96032.78
2022-09-20T07:00:43.552Z,96037.41
2022-09-20T07:03:12.649Z,96033.69
2022-09-20T07:05:41.186Z,96032.19
2022-09-20T07:08:08.800Z,96029.22
2022-09-20T07:10:38.610Z,96028.56
2022-09-20T07:13:06.730Z,96037.53
2022-09-20T07:15:35.831Z,96030.06
2022-09-20T07:18:03.723Z,96031.03
2022-09-20T07:20:31.760Z,96025.03
2022-09-20T07:22:59.365Z,96038.75
2022-09-20T07:25:27.461Z,96037.53
2022-09-20T07:27:57.298Z,96042.31
2022-09-20T07:30:25.253Z,96042.63
2022-09-20T07:32:52.878Z,96047.56
2022-09-20T07:35:20.865Z,96046.72
2022-09-20T07:37:48.462Z,96047.56
2022-09-20T07:40:17.490Z,96061.75
2022-09-20T07:42:46.002Z,96045.69
2022-09-20T07:45:15.985Z,96061.94
2022-09-20T07:47:44.851Z,96050.50
2022-09-20T07:50:13.117Z,96064.22
2022-09-20T07:52:40.727Z,96064.09
2022-09-20T07:55:09.949Z,96048.75
2022-09-20T07:57:38.202Z,96056.06
2022-09-20T08:00:09.286Z,96051.84
2022-09-20T08:02:45.360Z,96051.72
2022-09-20T08:05:13.412Z,96061.31
2022-09-20T08:07:41.035Z,96061.41
2022-09-20T08:10:09.385Z,96061.75
2022-09-20T08:15:25.878Z,96075.63
2022-09-20T08:17:54.998Z,96072.13
2022-09-20T08:20:23.056Z,96073.47
2022-09-20T08:23:12.629Z,96076.84
2022-09-20T08:25:39.718Z,96081.53
2022-09-20T08:28:07.327Z,96082.34
2022-09-20T08:30:35.048Z,96080.53
2022-09-20T08:33:06.935Z,96084.44
2022-09-20T08:35:38.258Z,96084.88
2022-09-20T08:40:56.395Z,96082.63
2022-09-20T08:43:31.168Z,96073.69
2022-09-20T08:46:05.414Z,96080.03
2022-09-20T08:48:35.031Z,96072.31
2022-09-20T08:51:07.032Z,96074.09
2022-09-20T08:53:35.420Z,96067.19
2022-09-20T08:56:04.707Z,96082.38
2022-09-20T08:58:32.421Z,96091.16
2022-09-20T09:01:00.745Z,96089.84
2022-09-20T09:03:29.220Z,96095.75
2022-09-20T09:05:59.719Z,96093.25
2022-09-20T09:08:30.967Z,96091.97
2022-09-20T09:11:08.766Z,96097.09
2022-09-20T09:13:45.366Z,96097.97
2022-09-20T09:16:22.329Z,96092.28
2022-09-20T09:18:51.751Z,96087.81
2022-09-20T09:21:23.454Z,96099.31
2022-09-20T09:23:54.375Z,96092.81
2022-09-20T09:26:24.429Z,96093.44
2022-09-20T09:29:10.216Z,96094.53
2022-09-20T09:31:39.755Z,96093.44
2022-09-20T09:34:24.512Z,96090.38
2022-09-20T09:36:55.424Z,96093.03
2022-09-20T09:39:26.448Z,96090.03
2022-09-20T09:41:55.397Z,96098.00
2022-09-20T09:44:25.581Z,96097.91
2022-09-20T09:46:54.454Z,96090.53
2022-09-20T09:49:24.190Z,96088.91
2022-09-20T09:52:06.967Z,96091.63
2022-09-20T09:54:37.219Z,96096.53
2022-09-20T09:57:20.523Z,96089.81
2022-09-20T10:00:07.522Z,96091.97
2022-09-20T10:03:24.845Z,96079.56
2022-09-20T10:06:08.354Z,96082.91
2022-09-20T10:08:46.290Z,96075.38
2022-09-20T10:11:32.382Z,96075.78
2022-09-20T10:14:13.434Z,96069.66
2022-09-20T10:17:00.631Z,96071.13
2022-09-20T10:19:50.314Z,96076.44
2022-09-20T10:22:29.104Z,96073.72
2022-09-20T10:25:10.231Z,96063.66
2022-09-20T10:27:52.498Z,96073.94
2022-09-20T10:30:23.419Z,96064.94
2022-09-20T10:33:01.655Z,96069.03
2022-09-20T10:35:46.834Z,96067.53
2022-09-20T10:38:19.655Z,96060.13
2022-09-20T10:41:25.839Z,96068.84
2022-09-20T10:44:06.178Z,96068.38
2022-09-20T10:46:46.179Z,96064.28
2022-09-20T10:49:32.584Z,96055.50
2022-09-20T10:52:14.793Z,96063.09
2022-09-20T10:55:03.053Z,96055.72
2022-09-20T10:58:08.287Z,96056.75
2022-09-20T11:00:47.270Z,96060.88
2022-09-20T11:03:30.133Z,96061.81
2022-09-20T11:06:12.759Z,96066.19
2022-09-20T11:08:42.206Z,96070.50
2022-09-20T11:11:14.152Z,96065.88
2022-09-20T11:13:48.438Z,96061.97
2022-09-20T11:16:23.328Z,96067.41
2022-09-20T11:18:58.889Z,96055.72
2022-09-20T11:21:32.479Z,96063.16
2022-09-20T11:24:06.435Z,96067.34
2022-09-20T11:26:40.037Z,96069.78
2022-09-20T11:29:20.801Z,96068.75
2022-09-20T11:31:51.712Z,96070.53
2022-09-20T11:34:25.633Z,96075.09
2022-09-20T11:36:58.736Z,96074.41
2022-09-20T11:39:31.343Z,96073.94
2022-09-20T11:42:02.565Z,96073.09
2022-09-20T11:44:42.094Z,96068.75
2022-09-20T11:47:36.600Z,96065.50
2022-09-20T11:51:06.835Z,96063.31
2022-09-20T11:57:46.847Z,96051.91
2022-09-20T12:00:17.731Z,96056.22
2022-09-20T12:02:49.727Z,96059.97
2022-09-20T12:05:32.138Z,96060.91
2022-09-20T12:08:02.932Z,96057.75
2022-09-20T12:10:35.154Z,96051.91
2022-09-20T12:13:05.572Z,96049.44
2022-09-20T12:15:36.886Z,96046.94
2022-09-20T12:18:39.522Z,96038.03
2022-09-20T12:21:15.277Z,96047.59
2022-09-20T12:24:00.835Z,96024.34
2022-09-20T12:26:55.811Z,96022.84
2022-09-20T12:29:55.691Z,96026.59
2022-09-20T12:32:55.296Z,96015.53
2022-09-20T12:36:00.562Z,96023.22
2022-09-20T12:38:34.905Z,96028.84
2022-09-20T12:41:07.806Z,96020.66
2022-09-20T12:43:39.817Z,96023.78
2022-09-20T12:46:12.036Z,96017.59
2022-09-20T12:48:41.732Z,96026.44
2022-09-20T12:51:40.338Z,96025.09
2022-09-20T12:54:12.073Z,96024.19
2022-09-20T12:56:46.211Z,96024.03
2022-09-20T12:59:23.268Z,96021.38
2022-09-20T13:01:51.545Z,96021.59
2022-09-20T13:04:52.955Z,96017.72
2022-09-20T13:07:44.723Z,96019.91
2022-09-20T13:10:32.233Z,96011.28
2022-09-20T13:13:05.823Z,96010.78
2022-09-20T13:15:35.612Z,96015.44
2022-09-20T13:18:04.299Z,96017.53
2022-09-20T13:20:35.137Z,96020.91
2022-09-20T13:23:05.192Z,96017.59
2022-09-20T13:25:34.982Z,96014.72
2022-09-20T13:28:10.326Z,96018.63
2022-09-20T13:30:41.827Z,96013.41
2022-09-20T13:33:18.492Z,96013.00
2022-09-20T13:35:49.898Z,96004.47
2022-09-20T13:38:25.313Z,95998.38
2022-09-20T13:40:54.132Z,96004.91
2022-09-20T13:43:29.249Z,96000.03
2022-09-20T13:45:58.878Z,96000.44
2022-09-20T13:48:28.470Z,96002.47
2022-09-20T13:50:58.296Z,96001.66
2022-09-20T13:53:41.621Z,96008.63
2022-09-20T13:56:15.127Z,96004.47
2022-09-20T13:58:43.636Z,96017.09
2022-09-20T14:01:24.102Z,96014.44
2022-09-20T14:03:51.870Z,96011.88
2022-09-20T14:06:28.075Z,96022.47
2022-09-20T14:08:57.618Z,96009.63
2022-09-20T14:11:28.165Z,96019.81
2022-09-20T14:13:58.140Z,96011.59
2022-09-20T14:16:30.979Z,96012.50
2022-09-20T14:19:00.342Z,96030.50
2022-09-20T14:21:33.011Z,96030.19
2022-09-20T14:24:04.411Z,96026.69
2022-09-20T14:26:34.716Z,96020.56
2022-09-20T14:29:30.394Z,96017.78
2022-09-20T14:32:01.120Z,96028.09
2022-09-20T14:34:29.520Z,96018.88
2022-09-20T14:37:07.517Z,96018.88
2022-09-20T14:39:46.248Z,96015.66
2022-09-20T14:42:21.124Z,96016.50
2022-09-20T14:44:53.429Z,96019.41
2022-09-20T14:47:28.643Z,96024.00
2022-09-20T14:49:58.023Z,96016.59
2022-09-20T14:52:45.359Z,96011.69
2022-09-20T14:55:28.570Z,96011.44
2022-09-20T14:58:03.129Z,96018.84
2022-09-20T15:00:32.513Z,96007.59
2022-09-20T15:03:08.290Z,96014.72
2022-09-20T15:05:36.286Z,96015.16
2022-09-20T15:08:05.233Z,96006.88
2022-09-20T15:10:33.334Z,96008.78
2022-09-20T15:13:00.917Z,96005.97
2022-09-20T15:15:29.362Z,96012.69
2022-09-20T15:17:57.012Z,96010.44
2022-09-20T15:20:25.432Z,96007.97
2022-09-20T15:22:53.397Z,96001.25
2022-09-20T15:25:22.629Z,96004.41
2022-09-20T15:27:50.824Z,96002.63
2022-09-20T15:30:20.934Z,95999.97
2022-09-20T15:32:48.570Z,96006.41
2022-09-20T15:35:16.269Z,96003.88
2022-09-20T15:37:43.853Z,96014.22
2022-09-20T15:40:12.367Z,96007.38
2022-09-20T15:42:41.755Z,96014.56
2022-09-20T15:45:11.293Z,96015.47
2022-09-20T15:47:39.714Z,96020.75
2022-09-20T15:50:09.642Z,96019.88
2022-09-20T15:52:39.826Z,96018.72
2022-09-20T15:55:09.453Z,96026.56
2022-09-20T15:57:37.066Z,96029.28
2022-09-20T16:00:07.192Z,96026.84
2022-09-20T16:02:36.118Z,96030.41
2022-09-20T16:05:05.899Z,96027.97
2022-09-20T16:07:33.710Z,96035.44
2022-09-20T16:10:01.466Z,96040.63
2022-09-20T16:12:29.053Z,96032.47
2022-09-20T16:14:57.006Z,96041.72
2022-09-20T16:17:39.869Z,96034.38
2022-09-20T16:20:08.802Z,96046.22
2022-09-20T16:22:36.435Z,96047.47
2022-09-20T16:25:06.047Z,96042.97
2022-09-20T16:27:34.677Z,96041.34
2022-09-20T16:30:03.437Z,96044.44
2022-09-20T16:32:32.383Z,96037.22
2022-09-20T16:35:04.076Z,96039.91
2022-09-20T16:37:32.676Z,96051.94
2022-09-20T16:40:00.882Z,96051.72
2022-09-20T16:42:29.715Z,96056.41
2022-09-20T16:44:57.693Z,96064.16
2022-09-20T16:47:26.234Z,96065.34
2022-09-20T16:49:56.597Z,96053.50
2022-09-20T16:52:26.374Z,96055.56
2022-09-20T16:54:54.817Z,96058.19
2022-09-20T16:57:23.139Z,96066.31
2022-09-20T16:59:51.827Z,96066.28
2022-09-20T17:02:19.437Z,96064.78
2022-09-20T17:04:47.097Z,96073.56
2022-09-20T17:07:16.830Z,96081.47
2022-09-20T17:09:44.445Z,96078.16
2022-09-20T17:12:13.940Z,96079.53
2022-09-20T17:14:41.806Z,96088.06
2022-09-20T17:17:09.920Z,96081.28
2022-09-20T17:19:37.502Z,96085.09
2022-09-20T17:22:07.449Z,96091.19
2022-09-20T17:24:36.396Z,96098.91
2022-09-20T17:27:04.739Z,96096.59
2022-09-20T17:29:32.344Z,96099.44
2022-09-20T17:32:00.598Z,96099.19
2022-09-20T17:34:29.459Z,96100.78
2022-09-20T17:36:57.381Z,96110.31
2022-09-20T17:39:25.229Z,96110.69
2022-09-20T17:41:54.187Z,96113.91
2022-09-20T17:44:21.784Z,96109.53
2022-09-20T17:46:50.708Z,96114.22
2022-09-20T17:49:19.937Z,96116.69
2022-09-20T17:51:49.617Z,96113.78
2022-09-20T17:54:17.721Z,96117.63
2022-09-20T17:56:47.394Z,96122.28
2022-09-20T17:59:17.766Z,96123.69
2022-09-20T18:01:48.149Z,96114.44
2022-09-20T18:04:15.857Z,96127.44
2022-09-20T18:06:47.362Z,96131.72
2022-09-20T18:09:16.423Z,96136.41
2022-09-20T18:11:46.741Z,96136.41
2022-09-20T18:14:16.603Z,96138.41
2022-09-20T18:16:45.179Z,96145.72
2022-09-20T18:19:14.096Z,96145.72
2022-09-20T18:21:41.758Z,96153.44
2022-09-20T18:24:11.615Z,96155.78
2022-09-20T18:26:40.422Z,96153.72
2022-09-20T18:29:11.162Z,96164.22
2022-09-20T18:31:43.455Z,96165.44
2022-09-20T18:34:18.125Z,96169.44
2022-09-20T18:36:48.157Z,96174.28
2022-09-20T18:39:15.766Z,96164.03
2022-09-20T18:41:44.743Z,96173.00
2022-09-20T18:44:13.574Z,96187.63
2022-09-20T18:46:43.103Z,96172.13
2022-09-20T18:49:14.912Z,96179.78
2022-09-20T18:51:43.889Z,96180.16
2022-09-20T18:54:12.665Z,96176.41
2022-09-20T18:56:42.594Z,96174.31
2022-09-20T18:59:15.852Z,96184.91
2022-09-20T19:02:14.600Z,96188.50
2022-09-20T19:05:11.864Z,96178.81
2022-09-20T19:07:49.944Z,96188.09
2022-09-20T19:10:25.997Z,96194.19
2022-09-20T19:13:01.111Z,96198.44
2022-09-20T19:15:41.695Z,96196.91
2022-09-20T19:18:24.050Z,96210.53
2022-09-20T19:20:57.600Z,96215.50
2022-09-20T19:23:42.855Z,96216.88
2022-09-20T19:26:20.104Z,96225.81
2022-09-20T19:28:48.965Z,96222.84
2022-09-20T19:31:23.069Z,96225.66
2022-09-20T19:33:54.800Z,96235.41
2022-09-20T19:36:23.731Z,96237.06
2022-09-20T19:39:03.810Z,96233.59
2022-09-20T19:41:41.520Z,96235.06
2022-09-20T19:44:22.805Z,96244.81
2022-09-20T19:47:02.691Z,96235.69
2022-09-20T19:49:42.746Z,96240.00
2022-09-20T19:52:13.329Z,96247.28
2022-09-20T19:54:46.267Z,96247.28
2022-09-20T19:57:20.158Z,96251.56
2022-09-20T19:59:49.109Z,96256.56
2022-09-20T20:02:17.736Z,96250.44
2022-09-20T20:04:47.252Z,96256.56
2022-09-20T20:07:27.752Z,96262.66
2022-09-20T20:10:03.526Z,96259.19
2022-09-20T20:12:36.472Z,96258.88
2022-09-20T20:15:17.833Z,96256.94
2022-09-20T20:17:54.420Z,96252.97
2022-09-20T20:20:33.766Z,96255.97
2022-09-20T20:23:22.098Z,96260.25
2022-09-20T20:25:59.942Z,96259.63
2022-09-20T20:28:27.804Z,96256.47
2022-09-20T20:30:59.208Z,96266.22
2022-09-20T20:33:27.590Z,96261.28
2022-09-20T20:35:57.632Z,96270.22
2022-09-20T20:38:26.585Z,96266.94
2022-09-20T20:41:04.724Z,96271.41
2022-09-20T20:43:32.974Z,96274.94
2022-09-20T20:46:01.146Z,96268.34
2022-09-20T20:48:28.941Z,96276.59
2022-09-20T20:51:05.934Z,96278.13
2022-09-20T20:53:34.497Z,96262.47
2022-09-20T20:56:03.718Z,96265.09
2022-09-20T20:58:33.261Z,96272.16
2022-09-20T21:01:08.792Z,96264.75
2022-09-20T21:03:36.845Z,96273.31
2022-09-20T21:06:06.340Z,96270.22
2022-09-20T21:08:35.851Z,96271.19
2022-09-20T21:11:06.101Z,96266.41
2022-09-20T21:13:35.209Z,96271.34
2022-09-20T21:16:05.067Z,96281.88
2022-09-20T21:18:34.648Z,96278.97
2022-09-20T21:21:03.530Z,96276.97
2022-09-20T21:23:36.237Z,96277.44
2022-09-20T21:26:08.426Z,96276.66
2022-09-20T21:28:37.850Z,96286.88
2022-09-20T21:31:06.905Z,96282.41
2022-09-20T21:33:36.097Z,96291.81
2022-09-20T21:36:04.845Z,96294.63
2022-09-20T21:38:34.534Z,96286.53
2022-09-20T21:41:04.986Z,96285.59
2022-09-20T21:43:32.830Z,96296.13
2022-09-20T21:46:00.901Z,96303.38
2022-09-20T21:48:29.892Z,96308.34
2022-09-20T21:51:05.565Z,96307.00
2022-09-20T21:53:35.020Z,96306.69
2022-09-20T21:56:04.851Z,96305.00
2022-09-20T21:58:32.750Z,96300.25
2022-09-20T22:01:02.302Z,96304.53
2022-09-20T22:03:34.842Z,96302.72
2022-09-20T22:06:08.687Z,96301.91
2022-09-20T22:08:39.666Z,96295.16
2022-09-20T22:11:12.216Z,96297.28
2022-09-20T22:13:43.254Z,96295.75
2022-09-20T22:16:12.953Z,96288.19
2022-09-20T22:18:42.002Z,96290.50
2022-09-20T22:21:12.199Z,96285.72
2022-09-20T22:23:42.300Z,96283.09
2022-09-20T22:26:13.159Z,96283.56
2022-09-20T22:28:41.306Z,96286.38
2022-09-20T22:31:11.834Z,96278.63
2022-09-20T22:33:43.362Z,96280.44
2022-09-20T22:36:14.108Z,96290.31
2022-09-20T22:38:43.705Z,96282.91
2022-09-20T22:41:12.844Z,96276.97
2022-09-20T22:43:41.697Z,96280.44
2022-09-20T22:46:11.397Z,96282.75
2022-09-20T22:48:40.036Z,96275.97
2022-09-20T22:51:09.518Z,96274.31
2022-09-20T22:53:38.184Z,96274.31
2022-09-20T22:56:10.277Z,96272.31
2022-09-20T22:58:40.805Z,96271.03
2022-09-20T23:01:11.050Z,96278.09
2022-09-20T23:03:39.398Z,96272.34
2022-09-20T23:06:15.678Z,96269.03
2022-09-20T23:08:43.763Z,96269.03
2022-09-20T23:11:13.127Z,96271.00
2022-09-20T23:13:40.798Z,96273.63
2022-09-20T23:16:13.824Z,96266.88
2022-09-20T23:18:41.522Z,96272.97
2022-09-20T23:21:09.696Z,96266.09
2022-09-20T23:23:37.856Z,96267.38
2022-09-20T23:26:08.496Z,96274.69
2022-09-20T23:28:39.435Z,96277.28
2022-09-20T23:31:09.935Z,96274.88
2022-09-20T23:33:37.731Z,96276.53
2022-09-20T23:36:07.607Z,96272.09
2022-09-20T23:38:35.386Z,96271.25
2022-09-20T23:41:04.683Z,96271.25
2022-09-20T23:43:32.641Z,96275.38
2022-09-20T23:46:02.122Z,96274.88
2022-09-20T23:48:30.639Z,96273.22
2022-09-20T23:50:58.909Z,96273.91
2022-09-20T23:53:26.514Z,96274.88
2022-09-20T23:55:54.739Z,96267.66
2022-09-20T23:58:22.554Z,96275.38
